AirNav   Everest Fuels
 
 849 users online  

99MO Parkland Health Center Heliport
Bonne Terre, Missouri, USA

GOING TO BONNE TERRE?


FAA INFORMATION EFFECTIVE 07 NOVEMBER 2019

Location

FAA Identifier: 99MO
Lat/Long: 37-54-43.1100N 090-31-55.6700W
37-54.718500N 090-31.927833W
37.9119750,-90.5321306
(estimated)
Elevation: 850 ft. / 259 m (estimated)
Variation: 01E (1995)
From city: 1 mile S of BONNE TERRE, MO
Time zone: UTC -6 (UTC -5 during Daylight Saving Time)
Zip code: 63628

Heliport Operations

Heliport use: Private use, FOR MEDICAL USE ONLY.
Activation date: 09/1996
Control tower: no
ARTCC: KANSAS CITY CENTER
FSS: COLUMBIA FLIGHT SERVICE STATION
Attendance: CONTINUOUS
Wind indicator: yes
Segmented circle: no
Lights: FOR PERIMETER LIGHTS CALL 573-760-8163.

Heliport Communications

WX AWOS-3PT at FAM (10 nm SE): 119.275 (573-756-6042)

Nearby radio navigation aids

VOR radial/distance  VOR name  Freq  Var
FAMr314/20.1FARMINGTON VORTAC115.7001E

Heliport Services

Runway Information

Helipad H1

Dimensions: 40 x 40 ft. / 12 x 12 m
Surface: asphalt
Latitude: 37-54.718500N
Longitude: 090-31.927833W
Elevation: 850.0 ft.
Traffic pattern: leftleft

Heliport Ownership and Management from official FAA records

Ownership: Privately-owned
Owner: PARKLAND HEALTH CENTER, BONNE TERRE
7245 RAIDER ROAD
BONNE TERRE, MO 63628
Phone (573) 756-6453
Manager: LYNN RASNICK, ADMIN
7245 RAIDER ROAD
BONNE TERRE, MO 63628
Phone (573) 756-6453

Additional Remarks

A52-H1 40 FT POWER LINE 75 FT E & 75 FT BLDG 200 FT N OF HELIPAD.
OWNER DESIRES ARPT NOT BE CHARTED.
FOR CD CTC KANSAS CITY ARTCC AT 913-254-8508.

Instrument Procedures

There are no published instrument procedures at 99MO.

Some nearby airports with instrument procedures:

8WC - Washington County Airport (9 nm W)
KFAM - Farmington Regional Airport (10 nm SE)
KFES - Festus Memorial Airport (18 nm N)
H88 - A Paul Vance Fredericktown Regional Airport (22 nm SE)
KPCD - Perryville Regional Airport (32 nm E)
 
Loc | Ops | Rwys | IFR | FBO | Links
Com | Nav | Svcs | Stats | Notes

Kansas City Aviation Department
 
Area around 99MO (Parkland Health Center Heliport)
 
Road maps at: MapQuest Bing Google
 
Aerial photo
No photo
 
Sectional chart

 
Airport distance calculator
Flying to Parkland Health Center Heliport? Find the distance to fly.

From to 99MO

Sunrise and sunset
Times for 21-Nov-2019
 Local
(UTC-6)
 Zulu
(UTC)
Morning civil twilight06:2212:22
Sunrise06:5012:50
Sunset16:4622:46
Evening civil twilight17:1423:14

Current date and time
Zulu (UTC)  21-Nov-2019 13:20:29
Local (UTC-6)  21-Nov-2019 07:20:29
 
METAR
KFAM 
10nm SE 
211256Z AUTO 19013KT 10SM OVC009 11/10 A2998 RMK AO2 RAB1157E48 CIG 007V012 SLP162 P0005 T01060100
TAF
KCPS 
43nm NE 
211133Z 2112/2212 16008KT 6SM -SHRA OVC040 FM211300 18013G23KT P6SM OVC035 FM211400 20012G24KT P6SM BKN025 FM211600 22012G24KT P6SM VCSH BKN025 FM211800 27011G22KT P6SM OVC025 FM212300 31010KT P6SM OVC020 FM220900 01008KT P6SM BKN060
KSUS 
45nm N 
211133Z 2112/2212 19011G21KT P6SM OVC040 FM211400 20011G23KT P6SM BKN025 FM211600 22011G23KT P6SM VCSH BKN025 FM211800 27010G21KT P6SM OVC025 FM212300 31009KT P6SM OVC020 FM220900 01007KT P6SM BKN060
KBLV 
50nm NE 
211055Z 2110/2214 17012KT 9999 -SHRA BKN050 QNH2992INS BECMG 2114/2115 18012KT 9999 -SHRA BKN012 OVC017 QNH2987INS TEMPO 2115/2118 19015G20KT 8000 -SHRA OVC007 BECMG 2119/2120 33010G15KT 9000 BR OVC015 QNH2988INS BECMG 2209/2210 36012KT 9999 NSW BKN025 QNH2988INS TX15/2118Z TN07/2205Z
NOTAMs
Click for the latest NOTAMs
NOTAMs are issued by the DoD/FAA and will open in a separate window not controlled by AirNav.

 

 
 

Would you like to see your business listed on this page?

 If your business provides an interesting product or service to pilots, flight crews, aircraft, or users of the Parkland Health Center Heliport, you should consider listing it here.  To start the listing process, click on the button below
 
Add a business
 

Other Pages about Parkland Health Center Heliport

Update a link
 
Copyright © AirNav, LLC. All rights reserved. Privacy Policy  Contact